マドリード/バラハス の空港の天気 - METARとTAF

マドリード・バラハス国際空港 ( LEMD / MAD ) - スペイン マドリード
飛行場実況気象(Metar)
観測時間04/27 18:30 CEST (04/27 16:30 UTC)
風向・風速東北東 3m/s
視程10km以上
天気現象
なし
気温15℃
湿度21%
気圧1013hPa
METARLEMD 271630Z 07006KT 010V130 CAVOK 15/M07 Q1013 NOSIG
過去の天気等 Google飛行場航空写真 Wunderground天気予報

過去48時間のMETAR

飛行場予報(TAF)
発表時間: 4/27 13:00 CEST (4/27 11:00 UTC)
予報対象時間: 27日14時 CEST ~ 28日20時 CEST
風向・風速北東 5m/s
視程10km以上
なし
27日14時 CEST ~ 27日20時 CEST に一時的に
風向・風速北東 8m/s 瞬間風速 13m/s
27日17時 CEST ~ 27日23時 CEST に 確率 40% で一時的に
風向・風速不定 3m/s
28日13時 CEST ~ 28日15時 CEST に徐々に
風向・風速南南東 4m/s
TAF LEMD 271100Z 2712/2818 04010KT CAVOK TX18/2815Z TN02/2806Z
TEMPO 2712/2718 04015G25KT
PROB40 TEMPO 2715/2721 VRB05KT
BECMG 2811/2813 16008KT